sensor_id;sensor_type;location;lat;lon;timestamp;pressure;altitude;pressure_sealevel;temperature;humidity
37634;BME280;32048;49.902;22.508;2023-04-06T00:01:04;98961.75;;;-1.96;100.00
37634;BME280;32048;49.902;22.508;2023-04-06T00:03:31;98960.88;;;-1.96;100.00
37634;BME280;32048;49.902;22.508;2023-04-06T00:05:59;98960.88;;;-1.96;100.00
37634;BME280;32048;49.902;22.508;2023-04-06T00:08:26;98960.88;;;-1.96;100.00
37634;BME280;32048;49.902;22.508;2023-04-06T00:10:54;98960.91;;;-1.95;100.00
37634;BME280;32048;49.902;22.508;2023-04-06T00:13:21;98954.00;;;-1.93;100.00
37634;BME280;32048;49.902;22.508;2023-04-06T00:15:48;98946.22;;;-1.93;100.00
37634;BME280;32048;49.902;22.508;2023-04-06T00:18:15;98945.34;;;-1.87;100.00
37634;BME280;32048;49.902;22.508;2023-04-06T00:20:43;98941.06;;;-1.85;100.00
37634;BME280;32048;49.902;22.508;2023-04-06T00:23:10;98939.31;;;-1.83;100.00
37634;BME280;32048;49.902;22.508;2023-04-06T00:25:37;98938.47;;;-1.79;100.00
37634;BME280;32048;49.902;22.508;2023-04-06T00:28:04;98926.38;;;-1.74;100.00
37634;BME280;32048;49.902;22.508;2023-04-06T00:30:31;98925.50;;;-1.73;100.00
37634;BME280;32048;49.902;22.508;2023-04-06T00:32:58;98922.94;;;-1.68;100.00
37634;BME280;32048;49.902;22.508;2023-04-06T00:35:26;98919.50;;;-1.65;100.00
37634;BME280;32048;49.902;22.508;2023-04-06T00:37:52;98925.53;;;-1.60;100.00
37634;BME280;32048;49.902;22.508;2023-04-06T00:40:20;98913.44;;;-1.58;100.00
37634;BME280;32048;49.902;22.508;2023-04-06T00:42:47;98913.44;;;-1.55;99.84
37634;BME280;32048;49.902;22.508;2023-04-06T00:45:14;98904.78;;;-1.53;99.50
37634;BME280;32048;49.902;22.508;2023-04-06T00:47:41;98904.81;;;-1.50;99.34
37634;BME280;32048;49.902;22.508;2023-04-06T00:50:09;98902.19;;;-1.47;99.05
37634;BME280;32048;49.902;22.508;2023-04-06T00:52:36;98905.66;;;-1.43;98.56
37634;BME280;32048;49.902;22.508;2023-04-06T00:55:04;98905.66;;;-1.43;98.29
37634;BME280;32048;49.902;22.508;2023-04-06T00:57:31;98895.28;;;-1.40;97.90
37634;BME280;32048;49.902;22.508;2023-04-06T00:59:58;98901.31;;;-1.38;97.57
37634;BME280;32048;49.902;22.508;2023-04-06T01:02:25;98892.69;;;-1.35;97.32
37634;BME280;32048;49.902;22.508;2023-04-06T01:04:54;98895.28;;;-1.34;97.12
37634;BME280;32048;49.902;22.508;2023-04-06T01:07:21;98891.81;;;-1.31;96.77
37634;BME280;32048;49.902;22.508;2023-04-06T01:09:48;98879.72;;;-1.29;96.48
37634;BME280;32048;49.902;22.508;2023-04-06T01:12:15;98878.84;;;-1.28;96.43
37634;BME280;32048;49.902;22.508;2023-04-06T01:14:43;98876.25;;;-1.27;96.21
37634;BME280;32048;49.902;22.508;2023-04-06T01:17:10;98875.41;;;-1.27;96.11
37634;BME280;32048;49.902;22.508;2023-04-06T01:19:37;98871.94;;;-1.24;96.14
37634;BME280;32048;49.902;22.508;2023-04-06T01:22:04;98871.09;;;-1.25;95.87
37634;BME280;32048;49.902;22.508;2023-04-06T01:24:32;98862.44;;;-1.22;95.54
37634;BME280;32048;49.902;22.508;2023-04-06T01:26:59;98869.31;;;-1.21;95.46
37634;BME280;32048;49.902;22.508;2023-04-06T01:29:27;98858.13;;;-1.20;94.72
37634;BME280;32048;49.902;22.508;2023-04-06T01:31:54;98869.34;;;-1.18;94.69
37634;BME280;32048;49.902;22.508;2023-04-06T01:34:22;98858.09;;;-1.19;94.52
37634;BME280;32048;49.902;22.508;2023-04-06T01:36:49;98862.44;;;-1.16;94.37
37634;BME280;32048;49.902;22.508;2023-04-06T01:39:16;98851.19;;;-1.15;94.02
37634;BME280;32048;49.902;22.508;2023-04-06T01:41:43;98850.31;;;-1.13;94.04
37634;BME280;32048;49.902;22.508;2023-04-06T01:44:10;98842.56;;;-1.14;94.03
37634;BME280;32048;49.902;22.508;2023-04-06T01:46:37;98836.50;;;-1.15;93.64
37634;BME280;32048;49.902;22.508;2023-04-06T01:49:04;98839.09;;;-1.13;93.24
37634;BME280;32048;49.902;22.508;2023-04-06T01:51:32;98838.19;;;-1.12;93.52
37634;BME280;32048;49.902;22.508;2023-04-06T01:53:59;98835.63;;;-1.11;93.27
37634;BME280;32048;49.902;22.508;2023-04-06T01:56:26;98833.03;;;-1.09;92.98
37634;BME280;32048;49.902;22.508;2023-04-06T01:58:54;98833.03;;;-1.09;93.08
37634;BME280;32048;49.902;22.508;2023-04-06T02:01:21;98827.00;;;-1.10;92.93
37634;BME280;32048;49.902;22.508;2023-04-06T02:03:49;98827.84;;;-1.08;92.82
37634;BME280;32048;49.902;22.508;2023-04-06T02:06:16;98814.00;;;-1.08;92.81
37634;BME280;32048;49.902;22.508;2023-04-06T02:08:43;98823.53;;;-1.07;92.91
37634;BME280;32048;49.902;22.508;2023-04-06T02:11:10;98820.91;;;-1.06;93.01
37634;BME280;32048;49.902;22.508;2023-04-06T02:13:38;98815.72;;;-1.06;92.94
37634;BME280;32048;49.902;22.508;2023-04-06T02:16:05;98806.22;;;-1.03;93.04
37634;BME280;32048;49.902;22.508;2023-04-06T02:18:32;98809.69;;;-1.05;93.30
37634;BME280;32048;49.902;22.508;2023-04-06T02:20:59;98803.66;;;-1.05;93.35
37634;BME280;32048;49.902;22.508;2023-04-06T02:23:26;98800.16;;;-1.06;93.36
37634;BME280;32048;49.902;22.508;2023-04-06T02:25:53;98795.00;;;-1.04;93.36
37634;BME280;32048;49.902;22.508;2023-04-06T02:28:20;98800.19;;;-1.02;93.15
37634;BME280;32048;49.902;22.508;2023-04-06T02:30:47;98799.31;;;-1.03;93.24
37634;BME280;32048;49.902;22.508;2023-04-06T02:33:14;98796.69;;;-1.01;93.24
37634;BME280;32048;49.902;22.508;2023-04-06T02:35:44;98790.66;;;-1.03;93.41
37634;BME280;32048;49.902;22.508;2023-04-06T02:38:11;98788.06;;;-1.02;93.38
37634;BME280;32048;49.902;22.508;2023-04-06T02:40:38;98794.09;;;-1.01;93.20
37634;BME280;32048;49.902;22.508;2023-04-06T02:43:05;98778.59;;;-1.03;93.13
37634;BME280;32048;49.902;22.508;2023-04-06T02:45:49;98784.63;;;-1.02;93.20
37634;BME280;32048;49.902;22.508;2023-04-06T02:48:17;98779.41;;;-0.98;93.29
37634;BME280;32048;49.902;22.508;2023-04-06T02:50:44;98779.41;;;-1.01;93.28
37634;BME280;32048;49.902;22.508;2023-04-06T02:53:11;98768.19;;;-1.01;93.58
37634;BME280;32048;49.902;22.508;2023-04-06T02:55:38;98777.69;;;-1.00;93.46
37634;BME280;32048;49.902;22.508;2023-04-06T02:58:05;98769.03;;;-1.01;93.86
37634;BME280;32048;49.902;22.508;2023-04-06T03:00:33;98775.97;;;-1.00;94.11
37634;BME280;32048;49.902;22.508;2023-04-06T03:03:00;98770.78;;;-1.01;94.53
37634;BME280;32048;49.902;22.508;2023-04-06T03:05:27;98767.34;;;-1.00;94.69
37634;BME280;32048;49.902;22.508;2023-04-06T03:07:54;98769.03;;;-0.99;94.83
37634;BME280;32048;49.902;22.508;2023-04-06T03:10:21;98759.53;;;-0.99;95.41
37634;BME280;32048;49.902;22.508;2023-04-06T03:12:48;98756.97;;;-1.03;96.04
37634;BME280;32048;49.902;22.508;2023-04-06T03:15:15;98750.06;;;-1.05;96.50
37634;BME280;32048;49.902;22.508;2023-04-06T03:17:42;98756.13;;;-1.07;96.91
37634;BME280;32048;49.902;22.508;2023-04-06T03:20:09;98751.81;;;-1.07;97.01
37634;BME280;32048;49.902;22.508;2023-04-06T03:22:37;98757.00;;;-1.08;97.54
37634;BME280;32048;49.902;22.508;2023-04-06T03:25:04;98758.72;;;-1.07;98.14
37634;BME280;32048;49.902;22.508;2023-04-06T03:27:31;98751.84;;;-1.10;98.78
37634;BME280;32048;49.902;22.508;2023-04-06T03:29:59;98750.09;;;-1.12;99.88
37634;BME280;32048;49.902;22.508;2023-04-06T03:32:27;98752.72;;;-1.14;100.00
37634;BME280;32048;49.902;22.508;2023-04-06T03:34:54;98757.03;;;-1.16;100.00
37634;BME280;32048;49.902;22.508;2023-04-06T03:37:21;98753.59;;;-1.19;100.00
37634;BME280;32048;49.902;22.508;2023-04-06T03:39:48;98758.81;;;-1.21;100.00
37634;BME280;32048;49.902;22.508;2023-04-06T03:42:15;98753.63;;;-1.24;100.00
37634;BME280;32048;49.902;22.508;2023-04-06T03:44:42;98751.91;;;-1.25;100.00
37634;BME280;32048;49.902;22.508;2023-04-06T03:47:09;98749.28;;;-1.23;100.00
37634;BME280;32048;49.902;22.508;2023-04-06T03:49:36;98746.72;;;-1.28;100.00
37634;BME280;32048;49.902;22.508;2023-04-06T03:52:06;98738.97;;;-1.30;100.00
37634;BME280;32048;49.902;22.508;2023-04-06T03:54:33;98744.16;;;-1.33;100.00
37634;BME280;32048;49.902;22.508;2023-04-06T03:57:00;98741.59;;;-1.36;100.00
37634;BME280;32048;49.902;22.508;2023-04-06T03:59:27;98740.75;;;-1.36;100.00
37634;BME280;32048;49.902;22.508;2023-04-06T04:01:55;98739.00;;;-1.37;100.00
37634;BME280;32048;49.902;22.508;2023-04-06T04:04:22;98735.56;;;-1.39;100.00
37634;BME280;32048;49.902;22.508;2023-04-06T04:06:49;98735.56;;;-1.42;100.00
37634;BME280;32048;49.902;22.508;2023-04-06T04:09:16;98742.50;;;-1.43;100.00
37634;BME280;32048;49.902;22.508;2023-04-06T04:11:43;98737.28;;;-1.41;100.00
37634;BME280;32048;49.902;22.508;2023-04-06T04:14:10;98732.13;;;-1.43;100.00
37634;BME280;32048;49.902;22.508;2023-04-06T04:16:37;98737.28;;;-1.41;100.00
37634;BME280;32048;49.902;22.508;2023-04-06T04:19:06;98740.75;;;-1.41;100.00
37634;BME280;32048;49.902;22.508;2023-04-06T04:21:42;98737.28;;;-1.40;100.00
37634;BME280;32048;49.902;22.508;2023-04-06T04:24:11;98736.41;;;-1.37;100.00
37634;BME280;32048;49.902;22.508;2023-04-06T04:26:39;98745.03;;;-1.35;100.00
37634;BME280;32048;49.902;22.508;2023-04-06T04:29:06;98736.38;;;-1.33;100.00
37634;BME280;32048;49.902;22.508;2023-04-06T04:31:33;98737.25;;;-1.31;100.00
37634;BME280;32048;49.902;22.508;2023-04-06T04:34:01;98738.97;;;-1.27;100.00
37634;BME280;32048;49.902;22.508;2023-04-06T04:36:28;98732.91;;;-1.24;100.00
37634;BME280;32048;49.902;22.508;2023-04-06T04:38:55;98737.19;;;-1.21;100.00
37634;BME280;32048;49.902;22.508;2023-04-06T04:41:22;98725.09;;;-1.18;100.00
37634;BME280;32048;49.902;22.508;2023-04-06T04:43:49;98726.81;;;-1.14;100.00
37634;BME280;32048;49.902;22.508;2023-04-06T04:46:16;98736.28;;;-1.10;100.00
37634;BME280;32048;49.902;22.508;2023-04-06T04:48:43;98732.78;;;-1.04;100.00
37634;BME280;32048;49.902;22.508;2023-04-06T04:51:11;98729.34;;;-1.05;100.00
37634;BME280;32048;49.902;22.508;2023-04-06T04:53:38;98728.47;;;-1.03;100.00
37634;BME280;32048;49.902;22.508;2023-04-06T04:56:05;98724.13;;;-1.01;100.00
37634;BME280;32048;49.902;22.508;2023-04-06T04:58:32;98715.50;;;-1.02;100.00
37634;BME280;32048;49.902;22.508;2023-04-06T05:00:59;98710.31;;;-1.00;100.00
37634;BME280;32048;49.902;22.508;2023-04-06T05:03:26;98713.81;;;-1.11;100.00
37634;BME280;32048;49.902;22.508;2023-04-06T05:05:54;98713.81;;;-1.09;100.00
37634;BME280;32048;49.902;22.508;2023-04-06T05:08:21;98714.69;;;-1.10;100.00
37634;BME280;32048;49.902;22.508;2023-04-06T05:10:48;98706.06;;;-1.17;100.00
37634;BME280;32048;49.902;22.508;2023-04-06T05:13:16;98704.38;;;-1.19;100.00
37634;BME280;32048;49.902;22.508;2023-04-06T05:15:43;98701.81;;;-1.22;100.00
37634;BME280;32048;49.902;22.508;2023-04-06T05:18:10;98704.44;;;-1.26;100.00
37634;BME280;32048;49.902;22.508;2023-04-06T05:20:38;98700.13;;;-1.30;100.00
37634;BME280;32048;49.902;22.508;2023-04-06T05:23:05;98701.88;;;-1.36;100.00
37634;BME280;32048;49.902;22.508;2023-04-06T05:25:33;98698.41;;;-1.37;100.00
37634;BME280;32048;49.902;22.508;2023-04-06T05:28:00;98702.72;;;-1.37;100.00
37634;BME280;32048;49.902;22.508;2023-04-06T05:30:27;98707.06;;;-1.39;100.00
37634;BME280;32048;49.902;22.508;2023-04-06T05:32:54;98701.00;;;-1.35;100.00
37634;BME280;32048;49.902;22.508;2023-04-06T05:35:22;98695.84;;;-1.41;100.00
37634;BME280;32048;49.902;22.508;2023-04-06T05:37:49;98687.22;;;-1.40;100.00
37634;BME280;32048;49.902;22.508;2023-04-06T05:40:16;98688.06;;;-1.40;100.00
37634;BME280;32048;49.902;22.508;2023-04-06T05:42:43;98674.25;;;-1.37;100.00
37634;BME280;32048;49.902;22.508;2023-04-06T05:45:11;98675.94;;;-1.35;100.00
37634;BME280;32048;49.902;22.508;2023-04-06T05:47:44;98663.84;;;-1.31;100.00
37634;BME280;32048;49.902;22.508;2023-04-06T05:50:12;98661.28;;;-1.31;100.00
37634;BME280;32048;49.902;22.508;2023-04-06T05:52:39;98656.13;;;-1.34;100.00
37634;BME280;32048;49.902;22.508;2023-04-06T05:55:10;98655.25;;;-1.39;100.00
37634;BME280;32048;49.902;22.508;2023-04-06T05:57:37;98656.13;;;-1.36;100.00
37634;BME280;32048;49.902;22.508;2023-04-06T06:00:06;98649.16;;;-1.29;100.00
37634;BME280;32048;49.902;22.508;2023-04-06T06:02:35;98645.66;;;-1.23;100.00
37634;BME280;32048;49.902;22.508;2023-04-06T06:05:03;98647.38;;;-1.19;100.00
37634;BME280;32048;49.902;22.508;2023-04-06T06:07:30;98645.66;;;-1.20;100.00
37634;BME280;32048;49.902;22.508;2023-04-06T06:09:58;98642.22;;;-1.22;100.00
37634;BME280;32048;49.902;22.508;2023-04-06T06:12:25;98647.38;;;-1.19;100.00
37634;BME280;32048;49.902;22.508;2023-04-06T06:14:52;98643.03;;;-1.17;100.00
37634;BME280;32048;49.902;22.508;2023-04-06T06:17:19;98639.59;;;-1.18;100.00
37634;BME280;32048;49.902;22.508;2023-04-06T06:19:47;98639.59;;;-1.18;100.00
37634;BME280;32048;49.902;22.508;2023-04-06T06:22:14;98636.09;;;-1.12;100.00
37634;BME280;32048;49.902;22.508;2023-04-06T06:24:41;98631.75;;;-1.07;100.00
37634;BME280;32048;49.902;22.508;2023-04-06T06:27:08;98635.16;;;-1.03;100.00
37634;BME280;32048;49.902;22.508;2023-04-06T06:29:35;98631.69;;;-1.01;100.00
37634;BME280;32048;49.902;22.508;2023-04-06T06:32:02;98630.78;;;-0.97;100.00
37634;BME280;32048;49.902;22.508;2023-04-06T06:34:30;98629.06;;;-0.93;100.00
37634;BME280;32048;49.902;22.508;2023-04-06T06:36:57;98624.75;;;-0.96;100.00
37634;BME280;32048;49.902;22.508;2023-04-06T06:39:24;98627.31;;;-0.90;100.00
37634;BME280;32048;49.902;22.508;2023-04-06T06:41:51;98622.94;;;-0.85;100.00
37634;BME280;32048;49.902;22.508;2023-04-06T06:44:18;98611.72;;;-0.87;100.00
37634;BME280;32048;49.902;22.508;2023-04-06T06:46:46;98610.88;;;-0.90;100.00
37634;BME280;32048;49.902;22.508;2023-04-06T06:49:13;98616.91;;;-0.88;100.00
37634;BME280;32048;49.902;22.508;2023-04-06T06:51:40;98605.72;;;-0.92;100.00
37634;BME280;32048;49.902;22.508;2023-04-06T06:54:08;98614.41;;;-0.99;100.00
37634;BME280;32048;49.902;22.508;2023-04-06T06:56:35;98616.13;;;-0.96;100.00
37634;BME280;32048;49.902;22.508;2023-04-06T06:59:06;98615.25;;;-0.95;100.00
37634;BME280;32048;49.902;22.508;2023-04-06T07:01:33;98598.84;;;-0.97;100.00
37634;BME280;32048;49.902;22.508;2023-04-06T07:04:01;98593.69;;;-1.00;100.00
37634;BME280;32048;49.902;22.508;2023-04-06T07:06:29;98590.25;;;-1.04;100.00
37634;BME280;32048;49.902;22.508;2023-04-06T07:08:56;98579.09;;;-1.11;100.00
37634;BME280;32048;49.902;22.508;2023-04-06T07:11:23;98579.13;;;-1.17;100.00
37634;BME280;32048;49.902;22.508;2023-04-06T07:13:50;98572.22;;;-1.16;100.00
37634;BME280;32048;49.902;22.508;2023-04-06T07:16:17;98564.47;;;-1.18;100.00
37634;BME280;32048;49.902;22.508;2023-04-06T07:18:45;98559.28;;;-1.18;100.00
37634;BME280;32048;49.902;22.508;2023-04-06T07:21:12;98567.06;;;-1.18;100.00
37634;BME280;32048;49.902;22.508;2023-04-06T07:23:39;98560.94;;;-1.12;100.00
37634;BME280;32048;49.902;22.508;2023-04-06T07:26:07;98565.22;;;-1.05;100.00
37634;BME280;32048;49.902;22.508;2023-04-06T07:28:34;98559.13;;;-0.99;100.00
37634;BME280;32048;49.902;22.508;2023-04-06T07:31:01;98548.69;;;-0.93;100.00
37634;BME280;32048;49.902;22.508;2023-04-06T07:33:28;98538.34;;;-0.92;100.00
37634;BME280;32048;49.902;22.508;2023-04-06T07:35:56;98539.19;;;-0.93;100.00
37634;BME280;32048;49.902;22.508;2023-04-06T07:38:39;98544.31;;;-0.88;100.00
37634;BME280;32048;49.902;22.508;2023-04-06T07:41:09;98546.03;;;-0.86;100.00
37634;BME280;32048;49.902;22.508;2023-04-06T07:43:42;98537.34;;;-0.80;100.00
37634;BME280;32048;49.902;22.508;2023-04-06T07:46:21;98536.41;;;-0.74;100.00
37634;BME280;32048;49.902;22.508;2023-04-06T07:49:15;98529.47;;;-0.72;100.00
37634;BME280;32048;49.902;22.508;2023-04-06T07:51:42;98536.34;;;-0.68;100.00
37634;BME280;32048;49.902;22.508;2023-04-06T07:54:09;98532.06;;;-0.71;100.00
37634;BME280;32048;49.902;22.508;2023-04-06T07:56:36;98548.47;;;-0.69;100.00
37634;BME280;32048;49.902;22.508;2023-04-06T07:59:03;98551.06;;;-0.67;100.00
37634;BME280;32048;49.902;22.508;2023-04-06T08:01:31;98563.13;;;-0.66;100.00
37634;BME280;32048;49.902;22.508;2023-04-06T08:03:58;98566.63;;;-0.70;100.00
37634;BME280;32048;49.902;22.508;2023-04-06T08:06:26;98559.72;;;-0.71;100.00
37634;BME280;32048;49.902;22.508;2023-04-06T08:08:54;98562.28;;;-0.70;100.00
37634;BME280;32048;49.902;22.508;2023-04-06T08:11:21;98562.25;;;-0.65;100.00
37634;BME280;32048;49.902;22.508;2023-04-06T08:13:48;98573.41;;;-0.57;100.00
37634;BME280;32048;49.902;22.508;2023-04-06T08:16:15;98562.13;;;-0.53;100.00
37634;BME280;32048;49.902;22.508;2023-04-06T08:18:42;98560.38;;;-0.49;100.00
37634;BME280;32048;49.902;22.508;2023-04-06T08:21:09;98556.84;;;-0.45;100.00
37634;BME280;32048;49.902;22.508;2023-04-06T08:23:36;98560.22;;;-0.37;100.00
37634;BME280;32048;49.902;22.508;2023-04-06T08:26:04;98554.19;;;-0.40;100.00
37634;BME280;32048;49.902;22.508;2023-04-06T08:28:31;98548.94;;;-0.34;100.00
37634;BME280;32048;49.902;22.508;2023-04-06T08:30:59;98550.66;;;-0.32;100.00
37634;BME280;32048;49.902;22.508;2023-04-06T08:33:29;98544.56;;;-0.29;100.00
37634;BME280;32048;49.902;22.508;2023-04-06T08:35:56;98546.25;;;-0.25;100.00
37634;BME280;32048;49.902;22.508;2023-04-06T08:38:24;98539.28;;;-0.20;100.00
37634;BME280;32048;49.902;22.508;2023-04-06T08:40:51;98536.69;;;-0.20;100.00
37634;BME280;32048;49.902;22.508;2023-04-06T08:43:21;98535.78;;;-0.17;100.00
37634;BME280;32048;49.902;22.508;2023-04-06T08:45:49;98540.09;;;-0.15;100.00
37634;BME280;32048;49.902;22.508;2023-04-06T08:48:16;98529.59;;;-0.07;100.00
37634;BME280;32048;49.902;22.508;2023-04-06T08:50:44;98538.25;;;-0.08;100.00
37634;BME280;32048;49.902;22.508;2023-04-06T08:53:12;98567.59;;;0.00;100.00
37634;BME280;32048;49.902;22.508;2023-04-06T08:55:42;98591.69;;;0.10;100.00
37634;BME280;32048;49.902;22.508;2023-04-06T08:58:10;98593.28;;;0.20;100.00
37634;BME280;32048;49.902;22.508;2023-04-06T09:00:38;98595.72;;;0.34;100.00
37634;BME280;32048;49.902;22.508;2023-04-06T09:03:07;98597.28;;;0.43;100.00
37634;BME280;32048;49.902;22.508;2023-04-06T09:05:35;98591.97;;;0.53;100.00
37634;BME280;32048;49.902;22.508;2023-04-06T09:08:02;98597.03;;;0.62;100.00
37634;BME280;32048;49.902;22.508;2023-04-06T09:10:29;98602.16;;;0.67;100.00
37634;BME280;32048;49.902;22.508;2023-04-06T09:13:06;98600.47;;;0.65;100.00
37634;BME280;32048;49.902;22.508;2023-04-06T09:15:34;98592.63;;;0.68;100.00
37634;BME280;32048;49.902;22.508;2023-04-06T09:18:01;98587.41;;;0.69;100.00
37634;BME280;32048;49.902;22.508;2023-04-06T09:20:29;98592.53;;;0.74;100.00
37634;BME280;32048;49.902;22.508;2023-04-06T09:22:56;98592.50;;;0.77;100.00
37634;BME280;32048;49.902;22.508;2023-04-06T09:25:24;98587.31;;;0.74;100.00
37634;BME280;32048;49.902;22.508;2023-04-06T09:28:03;98570.88;;;0.73;100.00
37634;BME280;32048;49.902;22.508;2023-04-06T09:30:31;98570.78;;;0.79;100.00
37634;BME280;32048;49.902;22.508;2023-04-06T09:32:58;98575.84;;;0.87;100.00
37634;BME280;32048;49.902;22.508;2023-04-06T09:35:27;98573.22;;;0.90;100.00
37634;BME280;32048;49.902;22.508;2023-04-06T09:37:54;98580.03;;;0.97;100.00
37634;BME280;32048;49.902;22.508;2023-04-06T09:40:22;98582.53;;;1.03;100.00
37634;BME280;32048;49.902;22.508;2023-04-06T09:42:50;98578.94;;;1.11;100.00
37634;BME280;32048;49.902;22.508;2023-04-06T09:45:20;98578.06;;;1.12;100.00
37634;BME280;32048;49.902;22.508;2023-04-06T09:47:47;98571.94;;;1.14;100.00
37634;BME280;32048;49.902;22.508;2023-04-06T09:50:18;98570.25;;;1.13;100.00
37634;BME280;32048;49.902;22.508;2023-04-06T09:52:48;98573.53;;;1.23;100.00
37634;BME280;32048;49.902;22.508;2023-04-06T09:55:27;98568.09;;;1.37;100.00
37634;BME280;32048;49.902;22.508;2023-04-06T09:58:10;98573.88;;;1.53;100.00
37634;BME280;32048;49.902;22.508;2023-04-06T10:06:39;98576.31;;;1.62;100.00
37634;BME280;32048;49.902;22.508;2023-04-06T10:09:07;98583.22;;;1.63;100.00
37634;BME280;32048;49.902;22.508;2023-04-06T10:11:35;98575.31;;;1.69;100.00
37634;BME280;32048;49.902;22.508;2023-04-06T10:14:02;98580.31;;;1.80;100.00
37634;BME280;32048;49.902;22.508;2023-04-06T10:16:30;98576.75;;;1.84;100.00
37634;BME280;32048;49.902;22.508;2023-04-06T10:19:06;98568.97;;;1.84;100.00
37634;BME280;32048;49.902;22.508;2023-04-06T10:21:38;98568.78;;;1.92;100.00
37634;BME280;32048;49.902;22.508;2023-04-06T10:24:09;98568.69;;;1.96;100.00
37634;BME280;32048;49.902;22.508;2023-04-06T10:26:40;98558.31;;;1.95;100.00
37634;BME280;32048;49.902;22.508;2023-04-06T10:29:07;98549.56;;;1.97;100.00
37634;BME280;32048;49.902;22.508;2023-04-06T10:31:42;98559.97;;;1.97;100.00
37634;BME280;32048;49.902;22.508;2023-04-06T10:34:10;98553.69;;;2.09;100.00
37634;BME280;32048;49.902;22.508;2023-04-06T10:36:37;98546.72;;;2.10;100.00
37634;BME280;32048;49.902;22.508;2023-04-06T10:39:05;98549.19;;;2.16;100.00
37634;BME280;32048;49.902;22.508;2023-04-06T10:41:44;98548.25;;;2.20;100.00
37634;BME280;32048;49.902;22.508;2023-04-06T10:44:25;98550.53;;;2.34;100.00
37634;BME280;32048;49.902;22.508;2023-04-06T10:46:53;98549.66;;;2.33;100.00
37634;BME280;32048;49.902;22.508;2023-04-06T10:49:21;98545.88;;;2.48;100.00
37634;BME280;32048;49.902;22.508;2023-04-06T10:51:55;98544.72;;;2.60;99.99
37634;BME280;32048;49.902;22.508;2023-04-06T10:54:24;98550.94;;;2.54;99.40
37634;BME280;32048;49.902;22.508;2023-04-06T10:56:52;98552.16;;;2.39;99.69
37634;BME280;32048;49.902;22.508;2023-04-06T10:59:20;98560.19;;;2.28;100.00
37634;BME280;32048;49.902;22.508;2023-04-06T11:01:48;98550.59;;;2.31;100.00
37634;BME280;32048;49.902;22.508;2023-04-06T11:04:20;98544.91;;;2.13;100.00
37634;BME280;32048;49.902;22.508;2023-04-06T11:06:49;98543.09;;;2.15;100.00
37634;BME280;32048;49.902;22.508;2023-04-06T11:09:29;98540.44;;;2.20;100.00
37634;BME280;32048;49.902;22.508;2023-04-06T11:11:58;98544.63;;;2.27;100.00
37634;BME280;32048;49.902;22.508;2023-04-06T11:14:25;98548.16;;;2.24;100.00
37634;BME280;32048;49.902;22.508;2023-04-06T11:16:53;98549.09;;;2.20;100.00
37634;BME280;32048;49.902;22.508;2023-04-06T11:19:21;98542.22;;;2.18;100.00
37634;BME280;32048;49.902;22.508;2023-04-06T11:21:49;98547.34;;;2.21;100.00
37634;BME280;32048;49.902;22.508;2023-04-06T11:24:20;98549.84;;;2.25;100.00
37634;BME280;32048;49.902;22.508;2023-04-06T11:26:55;98542.00;;;2.27;100.00
37634;BME280;32048;49.902;22.508;2023-04-06T11:29:23;98545.47;;;2.27;100.00
37634;BME280;32048;49.902;22.508;2023-04-06T11:31:53;98543.81;;;2.23;100.00
37634;BME280;32048;49.902;22.508;2023-04-06T11:34:24;98542.41;;;2.08;100.00
37634;BME280;32048;49.902;22.508;2023-04-06T11:37:00;98549.34;;;2.08;100.00
37634;BME280;32048;49.902;22.508;2023-04-06T11:39:28;98543.31;;;2.06;100.00
37634;BME280;32048;49.902;22.508;2023-04-06T11:41:59;98547.88;;;1.96;100.00
37634;BME280;32048;49.902;22.508;2023-04-06T11:44:49;98545.19;;;1.99;100.00
37634;BME280;32048;49.902;22.508;2023-04-06T11:47:16;98540.56;;;2.14;100.00
37634;BME280;32048;49.902;22.508;2023-04-06T11:49:44;98536.75;;;2.28;100.00
37634;BME280;32048;49.902;22.508;2023-04-06T11:52:18;98536.56;;;2.38;100.00
37634;BME280;32048;49.902;22.508;2023-04-06T11:54:46;98542.34;;;2.50;100.00
37634;BME280;32048;49.902;22.508;2023-04-06T11:57:15;98545.88;;;2.48;100.00
37634;BME280;32048;49.902;22.508;2023-04-06T11:59:43;98533.78;;;2.44;100.00
37634;BME280;32048;49.902;22.508;2023-04-06T12:02:11;98534.84;;;2.35;100.00
37634;BME280;32048;49.902;22.508;2023-04-06T12:04:38;98535.75;;;2.34;100.00
37634;BME280;32048;49.902;22.508;2023-04-06T12:07:06;98540.28;;;2.26;100.00
37634;BME280;32048;49.902;22.508;2023-04-06T12:09:33;98543.09;;;2.17;100.00
37634;BME280;32048;49.902;22.508;2023-04-06T12:12:01;98533.59;;;2.14;100.00
37634;BME280;32048;49.902;22.508;2023-04-06T12:14:29;98532.88;;;2.07;100.00
37634;BME280;32048;49.902;22.508;2023-04-06T12:16:58;98530.56;;;1.94;100.00
37634;BME280;32048;49.902;22.508;2023-04-06T12:19:25;98531.44;;;1.93;100.00
37634;BME280;32048;49.902;22.508;2023-04-06T12:21:53;98535.03;;;1.87;100.00
37634;BME280;32048;49.902;22.508;2023-04-06T12:24:21;98530.03;;;1.78;100.00
37634;BME280;32048;49.902;22.508;2023-04-06T12:26:49;98530.97;;;1.72;100.00
37634;BME280;32048;49.902;22.508;2023-04-06T12:29:25;98525.69;;;1.77;100.00
37634;BME280;32048;49.902;22.508;2023-04-06T12:31:52;98526.59;;;1.76;100.00
37634;BME280;32048;49.902;22.508;2023-04-06T12:34:20;98517.84;;;1.78;100.00
37634;BME280;32048;49.902;22.508;2023-04-06T12:36:47;98524.75;;;1.81;100.00
37634;BME280;32048;49.902;22.508;2023-04-06T12:39:15;98523.72;;;1.88;100.00
37634;BME280;32048;49.902;22.508;2023-04-06T12:41:46;98531.63;;;1.83;100.00
37634;BME280;32048;49.902;22.508;2023-04-06T12:44:13;98536.09;;;1.77;100.00
37634;BME280;32048;49.902;22.508;2023-04-06T12:46:40;98525.59;;;1.81;100.00
37634;BME280;32048;49.902;22.508;2023-04-06T12:49:09;98528.97;;;1.86;100.00
37634;BME280;32048;49.902;22.508;2023-04-06T12:51:37;98519.31;;;1.92;100.00
37634;BME280;32048;49.902;22.508;2023-04-06T12:54:04;98510.47;;;1.99;100.00
37634;BME280;32048;49.902;22.508;2023-04-06T12:56:31;98519.00;;;2.05;100.00